Aeroporto :
LOGIN :

Iscrizione | Disclaimer

   EN    FR    IT 

 










Sommario :    VFR   VFR Marginale   IFR   IFR Intensivo   IFR Molto Intensivo
Visibilità : 
Base nubi : 
>= 8 km
>= 3000ft
5 / 8 km
1000 / 3000 ft
1500m / 5 km
500 / 1000 ft
800 / 1500m
200 / 500 ft
< 800m
< 200 ft
Simboli :   Temporali  Nebbia  Neve Forte  Precipitazioni Forti  Vento > 20 kt
SIGMETs :   Varie  Temporali  Ghiacco  Turbolenza  Onda orograficha  Ceneri Vulcaniche






- Altitudine del aeroporto : 74 ft
- Codice IATA : EIN


EHEH - Eindhoven

ULTIMO METAR :
  • 260801Z AUTO 31008KT 250V010 9999 FEW012 SCT015 BKN039 12/09 Q0998 WHT TEMPO SCT008 BKN012

METARs OBSOLETI :
  • 260743Z AUTO 31008KT 230V360 9999 FEW007 BKN037 11/09 Q0998 BLU TEMPO 3500 DZRA SCT007 BKN010
  • 260727Z AUTO 32010KT 260V020 9999 FEW013 BKN015 BKN036 11/09 Q0998 WHT TEMPO 3500 DZRA SCT007 BKN010
  • 260725Z AUTO 32011KT 280V020 9999 SCT014 BKN016 BKN021 11/09 Q0998 GRN TEMPO 3500 DZRA SCT007 BKN010
  • 260702Z AUTO 32008KT 250V020 9999 SCT010 BKN012 OVC031 11/09 Q0997 GRN TEMPO 3500 DZRA SCT007 BKN010
  • 260625Z AUTO 31007KT 270V360 9999 FEW015 OVC027 10/09 Q0997 BLU TEMPO 3500 DZRA SCT007 BKN010
  • 260556Z AUTO 31007KT 260V010 9999 BKN027 OVC031 10/09 Q0997 BLU TEMPO 3500 DZRA SCT007 BKN010
  • 260542Z AUTO 33009KT 260V010 9000 DZ FEW001 OVC030 10/09 Q0997 BLU TEMPO 3500 DZRA SCT004 BKN007
  • 260535Z AUTO 33008KT 280V040 7000 -RA FEW001 SCT019 BKN022 10/09 Q0996 WHT TEMPO 3500 DZRA SCT004 BKN007
  • 260529Z AUTO 32007KT 280V040 9999 FEW008 SCT014 BKN017 10/09 Q0996 GRN TEMPO 3500 DZRA SCT004 BKN007

TAF TAF EHEH
Valido dal 26 a 06 ore il 27 a 12 ore UTC


260523Z 2606/2712 32008KT 9999 SCT018
TEMPO 2606/2610 3500 DZRA SCT007 BKN010
TEMPO 2618/2703 4500 RA SHRA SCT009 FEW012CB BKN018
PROB30
TEMPO 2622/2702 36012G25KT 3500 SHRA TSRA SCT006 SCT010CB BKN012
BECMG 2702/2704 SCT005 BKN008 OVC012
PROB40 2704/2708 3500 DZ SCT003 BKN005



MetMap, La meteo Aeronautica in un colpo d'occhio ! - Copyright ORBIFLY Dicembre 2007 - Disclaimer

ORBIFLY MET'MAP TEAM :

Programmazione e sviluppo : Alexandra Zaïnal
Concezione : Baudouin d'Aumeries
Aiuto per la programmazione : Marc-Olivier Méhu
Supporto tecnico e logistico : Manuel Goepfert
Aiuto per la traduzione : Arnaldo La Scala

Contatto : metmap@orbifly.com




FONTI E CREDITI :

   NOAA